createdAt,value
2016-11-06T14:18:49.023Z,997.89
2016-11-06T14:19:49.640Z,997.91
2016-11-06T14:20:50.247Z,997.93
2016-11-06T14:21:50.848Z,997.95
2016-11-06T14:22:51.458Z,997.95
2016-11-06T14:23:52.052Z,997.97
2016-11-06T14:24:52.668Z,997.97
2016-11-06T14:25:53.297Z,997.95
2016-11-06T14:26:53.886Z,997.99
2016-11-06T14:27:54.499Z,997.98
2016-11-06T14:28:55.109Z,997.99
2016-11-06T14:29:55.700Z,998.02
2016-11-06T14:30:56.293Z,998.03
2016-11-06T14:31:56.892Z,998.04
2016-11-06T14:32:57.498Z,998.07
2016-11-06T14:33:58.098Z,998.06
2016-11-06T14:34:58.703Z,998.08
2016-11-06T14:35:59.310Z,998.05
2016-11-06T14:36:59.916Z,998.12
2016-11-06T14:38:00.518Z,998.09
2016-11-06T14:39:01.154Z,998.09
2016-11-06T14:40:01.761Z,998.1
2016-11-06T14:41:02.366Z,998.1
2016-11-06T14:42:02.986Z,998.07
2016-11-06T14:43:03.601Z,998.1
2016-11-06T14:44:04.204Z,998.11
2016-11-06T14:45:04.883Z,998.15
2016-11-06T14:46:05.485Z,998.13
2016-11-06T14:47:06.094Z,998.16
2016-11-06T14:48:06.685Z,998.16
2016-11-06T14:49:07.293Z,998.15
2016-11-06T14:50:07.883Z,998.14
2016-11-06T14:51:08.483Z,998.15
2016-11-06T14:52:09.113Z,998.15
2016-11-06T14:53:09.708Z,998.17
2016-11-06T14:54:10.325Z,998.21
2016-11-06T14:55:10.930Z,998.18
2016-11-06T14:56:11.527Z,998.21
2016-11-06T14:57:12.130Z,998.22
2016-11-06T14:58:12.733Z,998.23
2016-11-06T14:59:13.332Z,998.26
2016-11-06T15:00:13.940Z,998.3
2016-11-06T15:01:14.533Z,998.3
2016-11-06T15:02:15.132Z,998.3
2016-11-06T15:03:15.741Z,998.32
2016-11-06T15:04:16.349Z,998.33
2016-11-06T15:05:16.983Z,998.32
2016-11-06T15:06:17.608Z,998.33
2016-11-06T15:07:18.221Z,998.33
2016-11-06T15:08:18.824Z,998.3
2016-11-06T15:09:19.533Z,998.33
2016-11-06T15:10:20.135Z,998.32
2016-11-06T15:11:20.732Z,998.34
2016-11-06T15:12:21.354Z,998.34
2016-11-06T15:13:21.958Z,998.36
2016-11-06T15:14:22.557Z,998.34
2016-11-06T15:15:23.162Z,998.39
2016-11-06T15:16:23.765Z,998.39
2016-11-06T15:17:24.365Z,998.39
2016-11-06T15:18:24.975Z,998.41
2016-11-06T15:19:25.580Z,998.35
2016-11-06T15:20:26.178Z,998.39
2016-11-06T15:21:26.822Z,998.37
2016-11-06T15:22:27.412Z,998.4
2016-11-06T15:23:28.008Z,998.36
2016-11-06T15:24:28.606Z,998.39
2016-11-06T15:25:29.204Z,998.45
2016-11-06T15:26:29.807Z,998.45
2016-11-06T15:27:30.414Z,998.49
2016-11-06T15:28:31.030Z,998.48
2016-11-06T15:29:31.630Z,998.55
2016-11-06T15:30:32.323Z,998.57
2016-11-06T15:31:32.921Z,998.57
2016-11-06T15:32:33.516Z,998.58
2016-11-06T15:33:34.121Z,998.57
2016-11-06T15:34:34.726Z,998.59
2016-11-06T15:35:35.327Z,998.6
2016-11-06T15:36:35.948Z,998.63
2016-11-06T15:37:36.516Z,998.63
2016-11-06T15:38:37.114Z,998.66
2016-11-06T15:39:37.708Z,998.64
2016-11-06T15:40:38.318Z,998.65
2016-11-06T15:41:38.919Z,998.67
2016-11-06T15:42:39.539Z,998.65
2016-11-06T15:43:40.133Z,998.66
2016-11-06T15:44:40.735Z,998.69
2016-11-06T15:45:41.339Z,998.69
2016-11-06T15:46:41.964Z,998.7
2016-11-06T15:47:42.559Z,998.73
2016-11-06T15:48:43.160Z,998.73
2016-11-06T15:49:43.766Z,998.75
2016-11-06T15:50:44.419Z,998.75
2016-11-06T15:51:45.028Z,998.74
2016-11-06T15:52:45.620Z,998.76
2016-11-06T15:53:46.225Z,998.75
2016-11-06T15:54:46.834Z,998.75
2016-11-06T15:55:47.428Z,998.73
2016-11-06T15:56:48.035Z,998.79
2016-11-06T15:57:48.631Z,998.8
2016-11-06T15:58:49.231Z,998.78
2016-11-06T15:59:49.832Z,998.81
2016-11-06T16:00:50.427Z,998.87
2016-11-06T16:01:51.090Z,998.84
2016-11-06T16:02:51.682Z,998.82
2016-11-06T16:03:52.305Z,998.79
2016-11-06T16:04:52.960Z,998.82
2016-11-06T16:05:53.561Z,998.84
2016-11-06T16:06:54.160Z,998.81
2016-11-06T16:07:54.754Z,998.84
2016-11-06T16:08:55.358Z,998.85
2016-11-06T16:09:55.960Z,998.86
2016-11-06T16:10:56.569Z,998.88
2016-11-06T16:11:57.198Z,998.86
2016-11-06T16:12:57.801Z,998.9
2016-11-06T16:13:58.400Z,998.87
2016-11-06T16:14:59.019Z,998.89
2016-11-06T16:15:59.615Z,998.93
2016-11-06T16:17:00.224Z,998.93
2016-11-06T16:18:00.826Z,998.95
2016-11-06T16:19:01.421Z,998.95
2016-11-06T16:20:02.024Z,998.99
2016-11-06T16:21:02.630Z,999.03
2016-11-06T16:22:03.235Z,999.05
2016-11-06T16:23:03.844Z,999.1
2016-11-06T16:24:04.439Z,999.11
2016-11-06T16:25:05.036Z,999.13
2016-11-06T16:26:05.631Z,999.1
2016-11-06T16:27:06.227Z,999.17
2016-11-06T16:28:06.876Z,999.14
2016-11-06T16:29:07.496Z,999.16
2016-11-06T16:30:08.103Z,999.21
2016-11-06T16:31:08.694Z,999.22
2016-11-06T16:32:09.421Z,999.2
2016-11-06T16:33:10.024Z,999.25
2016-11-06T16:34:10.654Z,999.31
2016-11-06T16:35:11.262Z,999.27
2016-11-06T16:36:11.875Z,999.33
2016-11-06T16:37:12.509Z,999.39
2016-11-06T16:38:13.126Z,999.35
2016-11-06T16:39:13.779Z,999.4
2016-11-06T16:40:14.376Z,999.4
2016-11-06T16:41:14.982Z,999.42
2016-11-06T16:42:15.591Z,999.41
2016-11-06T16:43:16.208Z,999.43
2016-11-06T16:44:16.832Z,999.48
2016-11-06T16:45:17.436Z,999.45
2016-11-06T16:46:18.093Z,999.46
2016-11-06T16:47:18.706Z,999.48
2016-11-06T16:48:19.313Z,999.48
2016-11-06T16:49:19.909Z,999.47
2016-11-06T16:50:20.529Z,999.49
2016-11-06T16:51:21.136Z,999.53
2016-11-06T16:52:21.736Z,999.55
2016-11-06T16:53:22.332Z,999.55
2016-11-06T16:54:22.933Z,999.55
2016-11-06T16:55:23.536Z,999.59
2016-11-06T16:56:24.132Z,999.59
2016-11-06T16:57:24.724Z,999.62
2016-11-06T16:58:25.336Z,999.57
2016-11-06T16:59:25.946Z,999.61
2016-11-06T17:00:26.541Z,999.66
2016-11-06T17:01:27.140Z,999.68
2016-11-06T17:02:27.743Z,999.67
2016-11-06T17:03:28.364Z,999.69
2016-11-06T17:04:28.971Z,999.69
2016-11-06T17:05:29.581Z,999.68
2016-11-06T17:06:30.217Z,999.72
2016-11-06T17:07:30.815Z,999.76
2016-11-06T17:08:31.437Z,999.75
2016-11-06T17:09:32.378Z,999.74
2016-11-06T17:10:32.656Z,999.76
2016-11-06T17:11:33.263Z,999.78
2016-11-06T17:12:33.868Z,999.77
2016-11-06T17:13:34.489Z,999.79
2016-11-06T17:14:35.102Z,999.79
2016-11-06T17:15:35.719Z,999.78
2016-11-06T17:16:36.334Z,999.8
2016-11-06T17:17:36.983Z,999.8
2016-11-06T17:18:37.585Z,999.82
2016-11-06T17:19:38.193Z,999.78
2016-11-06T17:20:38.808Z,999.9
2016-11-06T17:21:39.414Z,999.81
2016-11-06T17:22:40.108Z,999.87
2016-11-06T17:23:40.713Z,999.88
2016-11-06T17:24:41.316Z,999.88
2016-11-06T17:25:41.957Z,999.89
2016-11-06T17:26:42.572Z,999.9
2016-11-06T17:27:43.182Z,999.92
2016-11-06T17:28:43.799Z,999.88
2016-11-06T17:29:44.430Z,999.87
2016-11-06T17:30:45.056Z,999.94
2016-11-06T17:31:45.698Z,999.91
2016-11-06T17:32:46.353Z,999.9
2016-11-06T17:33:47.943Z,999.89
2016-11-06T17:34:48.560Z,999.9
2016-11-06T17:35:49.204Z,999.91
2016-11-06T17:36:49.813Z,999.97
2016-11-06T17:37:50.406Z,999.95
2016-11-06T17:38:51.026Z,999.95
2016-11-06T17:39:51.651Z,999.98
2016-11-06T17:40:52.263Z,999.95
2016-11-06T17:41:52.865Z,1000.01
2016-11-06T17:42:53.554Z,999.97
2016-11-06T17:43:54.217Z,999.99
2016-11-06T17:44:54.839Z,1000.02
2016-11-06T17:45:55.437Z,1000
2016-11-06T17:46:56.035Z,999.96
2016-11-06T17:47:56.646Z,1000
2016-11-06T17:48:57.253Z,1000.04
2016-11-06T17:49:57.854Z,1000
2016-11-06T17:50:58.455Z,999.99
2016-11-06T17:51:59.069Z,1000.01
2016-11-06T17:52:59.672Z,1000
2016-11-06T17:54:00.294Z,1000.01
2016-11-06T17:55:00.909Z,1000.06
2016-11-06T17:56:01.528Z,1000.04
2016-11-06T17:57:02.143Z,1000.11
2016-11-06T17:58:02.750Z,1000.06
2016-11-06T17:59:03.367Z,1000.08
2016-11-06T18:00:04.006Z,1000.07
2016-11-06T18:01:04.646Z,1000.08
2016-11-06T18:02:05.253Z,1000.15
2016-11-06T18:03:05.862Z,1000.12
2016-11-06T18:04:06.515Z,1000.16
2016-11-06T18:05:07.153Z,1000.18
2016-11-06T18:06:07.769Z,1000.19
2016-11-06T18:07:08.394Z,1000.22
2016-11-06T18:08:09.045Z,1000.21
2016-11-06T18:09:09.660Z,1000.23
2016-11-06T18:10:10.338Z,1000.23
2016-11-06T18:11:10.936Z,1000.27
2016-11-06T18:12:11.548Z,1000.25
2016-11-06T18:13:12.166Z,1000.23
2016-11-06T18:14:12.778Z,1000.3
2016-11-06T18:15:13.397Z,1000.29
2016-11-06T18:16:14.012Z,1000.32
2016-11-06T18:17:14.625Z,1000.37
2016-11-06T18:18:15.220Z,1000.32
2016-11-06T18:19:15.830Z,1000.35
2016-11-06T18:20:16.465Z,1000.35
2016-11-06T18:21:17.117Z,1000.35
2016-11-06T18:22:17.721Z,1000.39
2016-11-06T18:23:18.327Z,1000.42
2016-11-06T18:24:18.937Z,1000.4
2016-11-06T18:25:19.546Z,1000.41
2016-11-06T18:26:20.152Z,1000.45
2016-11-06T18:27:20.804Z,1000.41
2016-11-06T18:28:21.427Z,1000.43
2016-11-06T18:29:22.085Z,1000.39
2016-11-06T18:30:22.703Z,1000.39
2016-11-06T18:31:23.319Z,1000.42
2016-11-06T18:32:23.928Z,1000.42
2016-11-06T18:33:24.539Z,1000.41
2016-11-06T18:34:25.157Z,1000.45
2016-11-06T18:35:25.795Z,1000.44
2016-11-06T18:36:26.494Z,1000.4
2016-11-06T18:37:27.157Z,1000.47
2016-11-06T18:38:27.799Z,1000.44
2016-11-06T18:39:28.401Z,1000.43
2016-11-06T18:40:29.013Z,1000.4
2016-11-06T18:41:29.636Z,1000.44
2016-11-06T18:42:30.262Z,1000.45
2016-11-06T18:43:30.872Z,1000.41
2016-11-06T18:44:31.505Z,1000.45
2016-11-06T18:45:32.128Z,1000.4
2016-11-06T18:46:32.823Z,1000.43
2016-11-06T18:47:33.462Z,1000.42
2016-11-06T18:48:34.111Z,1000.43
2016-11-06T18:49:34.692Z,1000.46
2016-11-06T18:50:35.330Z,1000.45
2016-11-06T18:51:35.934Z,1000.44
2016-11-06T18:52:36.556Z,1000.45
2016-11-06T18:53:37.165Z,1000.48
2016-11-06T18:54:37.826Z,1000.46
2016-11-06T18:55:38.442Z,1000.49
2016-11-06T18:56:39.047Z,1000.48
2016-11-06T18:57:39.728Z,1000.53
2016-11-06T18:58:40.359Z,1000.55
2016-11-06T18:59:41.041Z,1000.49
2016-11-06T19:00:41.652Z,1000.56
2016-11-06T19:01:42.297Z,1000.52
2016-11-06T19:02:43.062Z,1000.54
2016-11-06T19:03:43.697Z,1000.55
2016-11-06T19:04:44.329Z,1000.56
2016-11-06T19:05:44.939Z,1000.59
2016-11-06T19:06:45.599Z,1000.55
2016-11-06T19:07:46.231Z,1000.54
2016-11-06T19:08:46.894Z,1000.58
2016-11-06T19:09:47.530Z,1000.55
2016-11-06T19:10:48.161Z,1000.56
2016-11-06T19:11:48.757Z,1000.59
2016-11-06T19:12:49.360Z,1000.54
2016-11-06T19:13:49.969Z,1000.61
2016-11-06T19:14:50.575Z,1000.63
2016-11-06T19:15:51.217Z,1000.64
2016-11-06T19:16:51.887Z,1000.67
2016-11-06T19:17:52.532Z,1000.7
2016-11-06T19:18:53.248Z,1000.72
2016-11-06T19:19:53.899Z,1000.68
2016-11-06T19:20:54.506Z,1000.71
2016-11-06T19:21:55.123Z,1000.73
2016-11-06T19:22:55.733Z,1000.76
2016-11-06T19:23:56.348Z,1000.76
2016-11-06T19:24:56.960Z,1000.8
2016-11-06T19:25:57.826Z,1000.86
2016-11-06T19:26:58.430Z,1000.81
2016-11-06T19:27:59.107Z,1000.81
2016-11-06T19:28:59.739Z,1000.82
2016-11-06T19:30:00.488Z,1000.87
2016-11-06T19:31:01.122Z,1000.87
2016-11-06T19:32:01.759Z,1000.88
2016-11-06T19:33:02.390Z,1000.93
2016-11-06T19:34:03.088Z,1000.96
2016-11-06T19:35:03.760Z,1001
2016-11-06T19:36:04.407Z,1001
2016-11-06T19:37:05.038Z,1001.02
2016-11-06T19:38:05.777Z,1001.04
2016-11-06T19:39:06.421Z,1001.07
2016-11-06T19:40:07.081Z,1001.06
2016-11-06T19:41:07.696Z,1001.08
2016-11-06T19:42:08.321Z,1001.05
2016-11-06T19:43:09.009Z,1001.05
2016-11-06T19:44:09.683Z,1001.05
2016-11-06T19:45:10.384Z,1001.05
2016-11-06T19:46:11.098Z,1001.07
2016-11-06T19:47:11.761Z,1001.04
2016-11-06T19:48:12.413Z,1001.06
2016-11-06T19:49:13.158Z,1001.11
2016-11-06T19:50:13.768Z,1001.09
2016-11-06T19:51:14.444Z,1001.13
2016-11-06T19:52:15.121Z,1001.07
2016-11-06T19:53:15.813Z,1001.14
2016-11-06T19:54:16.504Z,1001.15
2016-11-06T19:55:17.106Z,1001.16
2016-11-06T19:56:17.772Z,1001.14
2016-11-06T19:57:18.428Z,1001.14
2016-11-06T19:58:19.158Z,1001.16
2016-11-06T19:59:20.021Z,1001.12
2016-11-06T20:00:20.728Z,1001.17
2016-11-06T20:01:21.442Z,1001.19
2016-11-06T20:02:22.163Z,1001.2
2016-11-06T20:03:22.777Z,1001.23
2016-11-06T20:04:23.475Z,1001.22
2016-11-06T20:05:24.195Z,1001.23
2016-11-06T20:06:24.868Z,1001.24
2016-11-06T20:07:25.527Z,1001.27
2016-11-06T20:08:26.174Z,1001.27
2016-11-06T20:09:26.871Z,1001.26
2016-11-06T20:10:27.579Z,1001.27
2016-11-06T20:11:28.237Z,1001.29
2016-11-06T20:12:28.966Z,1001.32
2016-11-06T20:13:29.584Z,1001.3
2016-11-06T20:14:30.252Z,1001.29
2016-11-06T20:15:30.974Z,1001.33
2016-11-06T20:16:31.656Z,1001.31
2016-11-06T20:17:32.380Z,1001.31
2016-11-06T20:18:33.104Z,1001.32
2016-11-06T20:19:33.786Z,1001.4
2016-11-06T20:20:34.458Z,1001.36
2016-11-06T20:21:35.123Z,1001.36
2016-11-06T20:22:35.738Z,1001.42
2016-11-06T20:23:36.404Z,1001.4
2016-11-06T20:24:37.079Z,1001.38
2016-11-06T20:25:37.739Z,1001.42
2016-11-06T20:26:38.443Z,1001.44
2016-11-06T20:27:39.155Z,1001.44
2016-11-06T20:28:39.872Z,1001.47
2016-11-06T20:29:40.560Z,1001.51
2016-11-06T20:30:41.288Z,1001.48
2016-11-06T20:31:41.923Z,1001.52
2016-11-06T20:32:42.659Z,1001.5
2016-11-06T20:33:43.363Z,1001.51
2016-11-06T20:34:44.094Z,1001.55
2016-11-06T20:35:44.828Z,1001.59
2016-11-06T20:36:45.522Z,1001.56
2016-11-06T20:37:46.197Z,1001.59
2016-11-06T20:38:46.871Z,1001.58
2016-11-06T20:39:47.516Z,1001.59
2016-11-06T20:40:48.389Z,1001.57
2016-11-06T20:41:49.303Z,1001.6
2016-11-06T20:42:49.957Z,1001.62
2016-11-06T20:43:50.748Z,1001.57
2016-11-06T20:44:52.004Z,1001.59
2016-11-06T20:45:52.909Z,1001.63
2016-11-06T20:46:53.688Z,1001.66
2016-11-06T20:47:54.871Z,1001.63
2016-11-06T20:48:55.470Z,1001.65
2016-11-06T20:49:56.249Z,1001.67
2016-11-06T20:50:57.121Z,1001.64
2016-11-06T20:51:57.878Z,1001.65
2016-11-06T20:52:59.044Z,1001.63
2016-11-06T20:53:59.814Z,1001.63
2016-11-06T20:55:00.469Z,1001.6
2016-11-06T20:56:01.279Z,1001.62
2016-11-06T20:57:01.910Z,1001.62
2016-11-06T20:58:02.790Z,1001.61
2016-11-06T20:59:03.533Z,1001.64
2016-11-06T21:00:04.236Z,1001.62
2016-11-06T21:01:05.007Z,1001.61
2016-11-06T21:02:05.595Z,1001.6
2016-11-06T21:03:06.216Z,1001.6
2016-11-06T21:04:06.991Z,1001.59
2016-11-06T21:05:07.655Z,1001.55
2016-11-06T21:06:08.627Z,1001.59
2016-11-06T21:07:09.508Z,1001.63
2016-11-06T21:08:10.377Z,1001.64
2016-11-06T21:09:11.300Z,1001.65
2016-11-06T21:10:12.150Z,1001.63
2016-11-06T21:11:12.779Z,1001.63
2016-11-06T21:12:13.411Z,1001.59
2016-11-06T21:13:14.111Z,1001.63
2016-11-06T21:14:14.752Z,1001.62
2016-11-06T21:15:15.393Z,1001.63
2016-11-06T21:16:16.011Z,1001.61
2016-11-06T21:17:16.698Z,1001.6
2016-11-06T21:18:17.870Z,1001.66
2016-11-06T21:19:18.504Z,1001.64
2016-11-06T21:20:19.134Z,1001.61
2016-11-06T21:21:19.896Z,1001.64
2016-11-06T21:22:20.541Z,1001.73
2016-11-06T21:23:21.265Z,1001.69
2016-11-06T21:24:22.460Z,1001.68
2016-11-06T21:25:23.309Z,1001.66
2016-11-06T21:26:23.969Z,1001.66
2016-11-06T21:27:24.651Z,1001.73
2016-11-06T21:28:25.285Z,1001.71
2016-11-06T21:29:25.949Z,1001.72
2016-11-06T21:30:26.611Z,1001.77
2016-11-06T21:31:27.272Z,1001.71
2016-11-06T21:32:28.039Z,1001.73
2016-11-06T21:33:29.060Z,1001.77
2016-11-06T21:34:30.113Z,1001.74
2016-11-06T21:35:30.958Z,1001.77
2016-11-06T21:36:31.646Z,1001.74
2016-11-06T21:37:32.299Z,1001.75
2016-11-06T21:38:32.950Z,1001.79
2016-11-06T21:39:33.789Z,1001.85
2016-11-06T21:40:34.883Z,1001.85
2016-11-06T21:41:36.076Z,1001.85
2016-11-06T21:42:36.767Z,1001.82
2016-11-06T21:43:37.402Z,1001.87
2016-11-06T21:44:38.346Z,1001.88
2016-11-06T21:45:38.894Z,1001.87
2016-11-06T21:46:39.678Z,1001.89
2016-11-06T21:47:40.379Z,1001.91
2016-11-06T21:48:41.233Z,1001.94
2016-11-06T21:49:41.946Z,1001.93
2016-11-06T21:50:42.554Z,1001.93
2016-11-06T21:51:43.180Z,1001.97
2016-11-06T21:52:43.801Z,1001.92
2016-11-06T21:53:44.802Z,1001.92
2016-11-06T21:54:45.945Z,1001.97
2016-11-06T21:55:46.591Z,1001.98
2016-11-06T21:56:48.396Z,1001.97
2016-11-06T21:57:48.208Z,1002.06
2016-11-06T21:58:48.840Z,1001.98
2016-11-06T21:59:49.469Z,1002.05
2016-11-06T22:00:50.106Z,1002.01
2016-11-06T22:01:50.756Z,1001.99
2016-11-06T22:02:51.375Z,1001.99
2016-11-06T22:03:52.031Z,1002.02
2016-11-06T22:04:52.752Z,1002.01
2016-11-06T22:05:53.380Z,1002.03
2016-11-06T22:06:54.025Z,1002.03
2016-11-06T22:07:54.683Z,1002.02
2016-11-06T22:08:55.298Z,1002.01
2016-11-06T22:09:55.960Z,1001.96
2016-11-06T22:10:56.626Z,1002.01
2016-11-06T22:11:57.293Z,1002.04
2016-11-06T22:12:57.935Z,1002.06
2016-11-06T22:13:58.589Z,1002.08
2016-11-06T22:14:59.279Z,1002.09
2016-11-06T22:15:59.909Z,1002.11
2016-11-06T22:17:00.626Z,1002.1
2016-11-06T22:18:01.301Z,1002.15
2016-11-06T22:19:01.947Z,1002.15
2016-11-06T22:20:02.613Z,1002.18
2016-11-06T22:21:03.246Z,1002.17
2016-11-06T22:22:03.887Z,1002.22
2016-11-06T22:23:04.577Z,1002.23
2016-11-06T22:24:05.174Z,1002.23
2016-11-06T22:25:05.807Z,1002.32
2016-11-06T22:26:06.415Z,1002.26
2016-11-06T22:27:07.014Z,1002.32
2016-11-06T22:28:07.960Z,1002.29
2016-11-06T22:29:08.800Z,1002.27
2016-11-06T22:30:09.337Z,1002.28
2016-11-06T22:31:10.618Z,1002.35
2016-11-06T22:32:12.001Z,1002.29
2016-11-06T22:33:12.581Z,1002.32
2016-11-06T22:34:13.260Z,1002.29
2016-11-06T22:35:13.872Z,1002.32
2016-11-06T22:36:14.789Z,1002.41
2016-11-06T22:37:15.405Z,1002.35
2016-11-06T22:38:16.099Z,1002.4
2016-11-06T22:39:16.724Z,1002.34
2016-11-06T22:40:17.438Z,1002.36
2016-11-06T22:41:18.352Z,1002.39
2016-11-06T22:42:19.895Z,1002.39
2016-11-06T22:43:20.638Z,1002.39
2016-11-06T22:44:21.253Z,1002.4
2016-11-06T22:45:21.900Z,1002.42
2016-11-06T22:46:22.511Z,1002.44
2016-11-06T22:47:23.140Z,1002.41
2016-11-06T22:48:23.750Z,1002.46
2016-11-06T22:49:24.413Z,1002.47
2016-11-06T22:50:25.012Z,1002.44
2016-11-06T22:51:25.629Z,1002.45
2016-11-06T22:52:26.241Z,1002.51
2016-11-06T22:53:26.845Z,1002.51
2016-11-06T22:54:27.447Z,1002.52
2016-11-06T22:55:28.055Z,1002.51
2016-11-06T22:56:28.654Z,1002.56
2016-11-06T22:57:29.251Z,1002.56
2016-11-06T22:58:29.854Z,1002.57
2016-11-06T22:59:30.466Z,1002.59
2016-11-06T23:00:31.076Z,1002.56
2016-11-06T23:01:31.691Z,1002.57
2016-11-06T23:02:32.299Z,1002.57
2016-11-06T23:03:32.919Z,1002.57
2016-11-06T23:04:33.531Z,1002.57
2016-11-06T23:05:34.134Z,1002.56
2016-11-06T23:06:34.734Z,1002.52
2016-11-06T23:07:35.338Z,1002.58
2016-11-06T23:08:35.960Z,1002.58
2016-11-06T23:09:36.583Z,1002.59
2016-11-06T23:10:37.227Z,1002.57
2016-11-06T23:11:37.830Z,1002.55
2016-11-06T23:12:38.444Z,1002.57
2016-11-06T23:13:39.046Z,1002.6
2016-11-06T23:14:39.650Z,1002.63
2016-11-06T23:15:40.256Z,1002.66
2016-11-06T23:16:40.867Z,1002.67
2016-11-06T23:17:41.589Z,1002.72
2016-11-06T23:18:42.194Z,1002.67
2016-11-06T23:19:42.826Z,1002.65
2016-11-06T23:20:43.455Z,1002.64
2016-11-06T23:21:44.052Z,1002.71
2016-11-06T23:22:44.650Z,1002.68
2016-11-06T23:23:45.252Z,1002.71
2016-11-06T23:24:45.853Z,1002.7
2016-11-06T23:25:46.451Z,1002.78
2016-11-06T23:26:47.051Z,1002.69
2016-11-06T23:27:47.651Z,1002.72
2016-11-06T23:28:48.269Z,1002.73
2016-11-06T23:29:48.875Z,1002.75
2016-11-06T23:30:49.495Z,1002.78
2016-11-06T23:31:50.129Z,1002.79
2016-11-06T23:32:50.731Z,1002.75
2016-11-06T23:33:51.337Z,1002.77
2016-11-06T23:34:51.959Z,1002.78
2016-11-06T23:35:52.563Z,1002.81
2016-11-06T23:36:53.178Z,1002.78
2016-11-06T23:37:53.809Z,1002.72
2016-11-06T23:38:54.420Z,1002.77
2016-11-06T23:39:55.024Z,1002.83
2016-11-06T23:40:55.624Z,1002.78
2016-11-06T23:41:56.272Z,1002.81
2016-11-06T23:42:56.888Z,1002.8
2016-11-06T23:43:57.490Z,1002.84
2016-11-06T23:44:58.088Z,1002.83
2016-11-06T23:45:58.708Z,1002.81
2016-11-06T23:46:59.332Z,1002.83
2016-11-06T23:48:00.064Z,1002.9
2016-11-06T23:49:00.619Z,1002.93
2016-11-06T23:50:01.217Z,1002.93
2016-11-06T23:51:01.828Z,1002.87
2016-11-06T23:52:02.434Z,1002.85
2016-11-06T23:53:03.054Z,1002.93
2016-11-06T23:54:03.654Z,1002.87
2016-11-06T23:55:04.366Z,1002.89
2016-11-06T23:56:04.974Z,1002.97
2016-11-06T23:57:05.592Z,1002.92
2016-11-06T23:58:06.194Z,1002.99
2016-11-06T23:59:06.809Z,1002.97
